createdAt,value
2022-09-12T00:00:23.925Z,5
2022-09-12T00:15:24.466Z,4
2022-09-12T00:30:23.968Z,5
2022-09-12T00:45:24.550Z,4
2022-09-12T01:00:24.129Z,4
2022-09-12T01:15:24.407Z,5
2022-09-12T01:30:24.551Z,5
2022-09-12T01:45:24.113Z,5
2022-09-12T02:00:24.604Z,6
2022-09-12T02:15:23.905Z,5
2022-09-12T02:30:23.982Z,4
2022-09-12T02:45:24.273Z,6
2022-09-12T03:00:24.592Z,4
2022-09-12T03:15:23.932Z,4
2022-09-12T03:30:24.369Z,4
2022-09-12T03:45:23.917Z,6
2022-09-12T04:00:24.433Z,5
2022-09-12T04:15:24.604Z,3
2022-09-12T04:30:24.094Z,7
2022-09-12T04:45:24.701Z,10
2022-09-12T05:00:23.841Z,5
2022-09-12T05:15:23.926Z,4
2022-09-12T05:30:23.611Z,3
2022-09-12T05:45:24.258Z,4
2022-09-12T06:00:24.376Z,7
2022-09-12T06:15:24.663Z,5
2022-09-12T06:30:25.423Z,3
2022-09-12T06:45:24.821Z,4
2022-09-12T07:00:24.366Z,3
2022-09-12T07:15:23.959Z,3
2022-09-12T07:30:24.081Z,2
2022-09-12T07:45:24.377Z,2
2022-09-12T08:00:24.550Z,1
2022-09-12T08:15:23.852Z,2
2022-09-12T08:30:23.996Z,1
2022-09-12T08:45:23.533Z,1
2022-09-12T09:00:23.923Z,1
2022-09-12T09:15:24.700Z,1
2022-09-12T09:30:23.885Z,1
2022-09-12T09:45:24.499Z,1
2022-09-12T10:00:23.692Z,1
2022-09-12T10:15:24.188Z,1
2022-09-12T10:30:24.841Z,0
2022-09-12T10:45:23.881Z,1
2022-09-12T11:00:23.658Z,1
2022-09-12T11:15:24.096Z,1
2022-09-12T11:30:24.018Z,0
2022-09-12T11:45:24.191Z,1
2022-09-12T12:00:24.332Z,0
2022-09-12T12:15:24.139Z,0
2022-09-12T12:30:24.493Z,0
2022-09-12T12:45:24.195Z,1
2022-09-12T13:00:23.786Z,1
2022-09-12T13:15:24.002Z,1
2022-09-12T13:30:24.040Z,1
2022-09-12T13:45:24.440Z,0
2022-09-12T14:00:24.467Z,1
2022-09-12T14:15:23.613Z,1
2022-09-12T14:30:23.805Z,1
2022-09-12T14:45:24.285Z,1
2022-09-12T15:00:24.566Z,1
2022-09-12T15:15:24.326Z,0
2022-09-12T15:30:23.877Z,0
2022-09-12T15:45:24.645Z,1
2022-09-12T16:00:23.980Z,1
2022-09-12T16:15:24.137Z,1
2022-09-12T16:30:24.708Z,1
2022-09-12T16:45:24.249Z,1
2022-09-12T17:00:24.538Z,1
2022-09-12T17:15:24.067Z,1
2022-09-12T17:30:24.204Z,2
2022-09-12T17:45:24.586Z,2
2022-09-12T18:00:24.582Z,6
2022-09-12T18:15:24.427Z,3
2022-09-12T18:30:23.804Z,4
2022-09-12T18:45:24.427Z,5
2022-09-12T19:00:24.743Z,7
2022-09-12T19:15:23.960Z,5
2022-09-12T19:30:23.572Z,4
2022-09-12T19:45:24.600Z,6
2022-09-12T20:00:23.600Z,5
2022-09-12T20:15:24.029Z,4
2022-09-12T20:30:24.036Z,4
2022-09-12T20:45:24.118Z,4
2022-09-12T21:00:23.840Z,4
2022-09-12T21:15:24.162Z,5
2022-09-12T21:30:24.723Z,5
2022-09-12T21:45:24.088Z,5
2022-09-12T22:00:24.162Z,5
2022-09-12T22:15:39.891Z,4
2022-09-12T22:30:23.952Z,6
2022-09-12T22:45:24.427Z,5
2022-09-12T23:00:24.447Z,6
2022-09-12T23:15:23.999Z,6
2022-09-12T23:30:23.735Z,7
2022-09-12T23:45:24.195Z,7
